Photo de Laille
Rennes
pluie légère, Bruine, couvert
Metar : 2017/09/25 00:30 LFRN 250030Z AUTO 19003KT 6000 -RADZ BKN004 OVC009 16/16 Q1018 TEMPO 2000 RA
Couverture nuageuse : Mostly Cloudy 400 ft Overcast 900 ft
Pression de 30.06 inHg (1018 hPa)
Humidité : 100%
Température : 61°F (16°C)
Vent de S at 3 mph (6 km/h)
Visibilité : 4 miles (6 km)
Nantes
Orageux
Metar : 2017/09/25 00:30 LFRS 250030Z AUTO VRB03KT 9000 FEW003/// SCT030/// OVC100/// ///CB 16/15 Q1018 TEMPO 4000 RA BKN007 BKN040TCU
Couverture nuageuse : Few Clouds 300 ft Partly Cloudy 3000 ft Overcast 10000 ft
Traduc : Partly cloudy 700 ft
Pression de 30.06 inHg (1018 hPa)
Humidité : 94%
Température : 61°F (16°C)
Point de rosée : 59°F (15°C)
Vent de varies at 3 mph (6 km/h)
Visibilité : 6 miles (9 km)
Lannion
pluie légère, couvert
Metar : 2017/09/25 00:30 LFRO 250030Z AUTO 31002KT 9999 -RA OVC047 14/14 Q1018
Couverture nuageuse : Overcast 4700 ft
Traduc : Partly cloudy 700 ft
Pression de 30.06 inHg (1018 hPa)
Humidité : 100%
Température : 57°F (14°C)
Point de rosée : 57°F (14°C)
Vent de NW at 2 mph (4 km/h)
Visibilité : 6 miles (10 km)
Dinard
pluie légère, Orageux
Metar : 2017/09/25 00:30 LFRD 250030Z AUTO 20003KT 9999 -RA FEW007/// OVC022/// ///TCU 16/16 Q1017 TEMPO 2000 RA BKN003
Couverture nuageuse : Few Clouds 700 ft Overcast 2200 ft
Traduc : Partly cloudy 700 ft
Pression de 30.03 inHg (1017 hPa)
Humidité : 100%
Température : 61°F (16°C)
Point de rosée : 61°F (16°C)
Vent de SSW at 3 mph (6 km/h)
Visibilité : 6 miles (10 km)
Brest
partiellement nuageux
Metar : 2017/09/22 17:00 LFRB 221700Z AUTO 20014KT 9999 SCT021 16/11 Q1022 BECMG VRB02KT
Couverture nuageuse : Partly Cloudy 2100 ft
Traduc : Partly cloudy 700 ft
Pression de 30.18 inHg (1022 hPa)
Humidité : 72%
Température : 61°F (16°C)
Point de rosée : 52°F (11°C)
Vent de SSW at 16 mph (26 km/h)
Visibilité : 6 miles (10 km)
Quimper
nuageux
Metar : 2017/09/25 00:30 LFRQ 250030Z AUTO 35004KT 9999 FEW009 SCT020 BKN042 14/14 Q1018
Couverture nuageuse : Few Clouds 900 ft Partly Cloudy 2000 ft Mostly Cloudy 4200 ft
Traduc : Partly cloudy 700 ft
Pression de 30.06 inHg (1018 hPa)
Humidité : 100%
Température : 57°F (14°C)
Point de rosée : 57°F (14°C)
Vent de N at 5 mph (7 km/h)
Visibilité : 6 miles (10 km)
St Nazaire
Orageux
Metar : 2017/09/25 00:30 LFRZ 250030Z AUTO 27002KT 9999 FEW005/// BKN022/// BKN084/// ///CB 16/15 Q1018 TEMPO 4000 RA BKN005 BKN030
Couverture nuageuse : Few Clouds 500 ft Mostly Cloudy 2200 ft Mostly Cloudy 8400 ft
Traduc : Partly cloudy 700 ft
Pression de 30.06 inHg (1018 hPa)
Humidité : 94%
Température : 61°F (16°C)
Point de rosée : 59°F (15°C)
Vent de W at 2 mph (4 km/h)
Visibilité : 6 miles (10 km)
St Brieuc
pluie légère, couvert
Metar : 2017/09/24 21:00 LFRT 242100Z AUTO 36003KT 320V040 6000 -RA BKN002 OVC006 16/15 Q1018
Couverture nuageuse : Mostly Cloudy 200 ft Overcast 600 ft
Traduc : Partly cloudy 700 ft
Pression de 30.06 inHg (1018 hPa)
Humidité : 94%
Température : 61°F (16°C)
Point de rosée : 59°F (15°C)
Vent de N at 3 mph (6 km/h)
Visibilité : 4 miles (6 km)
Lorient
Brume
Metar : 2017/09/25 00:30 LFRH 250030Z AUTO 22005KT 1900 BR VV/// 15/15 Q1017 BECMG 34010KT 9999 NSW BKN008
Couverture nuageuse :
Traduc : Partly cloudy 700 ft
Pression de 30.03 inHg (1017 hPa)
Humidité : 100%
Température : 59°F (15°C)
Point de rosée : 59°F (15°C)
Vent de SW at 6 mph (9 km/h)
Visibilité : 1 mile (2 km)
Vannes-Meucon

Metar : 2017/09/25 00:30 LFRV 250030Z AUTO VRB03KT 1500 1100 BR VV/// ///TCU 15/15 Q1018
Couverture nuageuse :
Traduc : Partly cloudy 700 ft
Pression de
Humidité :
Température :
Point de rosée :
Vent de varies at 3 mph (6 km/h)
Visibilité : 1 mile (2 km)

 


   Weather Underground PWS IBRETAGN39      Weather Underground PWS IBRETAGN39Retour Météo-Laillé adhérent de Météo-Bretagne et d'Infoclimat. Données mises à jour en temps réel via Météolink Climatologie réalisée sous Wswin et GraphWeather.

Affichage prévisions météo de WeatherUnderground via script PHP de Saratoga.

Copyright 2012-2017